sensor_id;sensor_type;location;lat;lon;timestamp;temperature;humidity
46730;DHT22;32476;50.002;11.854;2023-07-02T00:02:14;14.20;99.90
46730;DHT22;32476;50.002;11.854;2023-07-02T00:04:43;14.20;99.90
46730;DHT22;32476;50.002;11.854;2023-07-02T00:07:09;14.30;99.90
46730;DHT22;32476;50.002;11.854;2023-07-02T00:09:35;14.30;99.90
46730;DHT22;32476;50.002;11.854;2023-07-02T00:12:02;14.30;99.90
46730;DHT22;32476;50.002;11.854;2023-07-02T00:14:29;14.30;99.90
46730;DHT22;32476;50.002;11.854;2023-07-02T00:16:54;14.30;99.90
46730;DHT22;32476;50.002;11.854;2023-07-02T00:19:22;14.20;99.90
46730;DHT22;32476;50.002;11.854;2023-07-02T00:21:48;14.20;99.90
46730;DHT22;32476;50.002;11.854;2023-07-02T00:24:14;14.30;99.90
46730;DHT22;32476;50.002;11.854;2023-07-02T00:26:43;14.30;99.90
46730;DHT22;32476;50.002;11.854;2023-07-02T00:29:08;14.30;99.90
46730;DHT22;32476;50.002;11.854;2023-07-02T00:31:35;14.30;99.90
46730;DHT22;32476;50.002;11.854;2023-07-02T00:34:03;14.20;99.90
46730;DHT22;32476;50.002;11.854;2023-07-02T00:36:30;14.30;99.90
46730;DHT22;32476;50.002;11.854;2023-07-02T00:38:57;14.20;99.90
46730;DHT22;32476;50.002;11.854;2023-07-02T00:41:25;14.30;99.90
46730;DHT22;32476;50.002;11.854;2023-07-02T00:43:51;14.30;99.90
46730;DHT22;32476;50.002;11.854;2023-07-02T00:46:21;14.30;99.90
46730;DHT22;32476;50.002;11.854;2023-07-02T00:48:51;14.30;99.90
46730;DHT22;32476;50.002;11.854;2023-07-02T00:51:20;14.30;99.90
46730;DHT22;32476;50.002;11.854;2023-07-02T00:53:55;14.30;99.90
46730;DHT22;32476;50.002;11.854;2023-07-02T00:56:23;14.30;99.90
46730;DHT22;32476;50.002;11.854;2023-07-02T00:58:51;14.30;99.90
46730;DHT22;32476;50.002;11.854;2023-07-02T01:01:21;14.30;99.90
46730;DHT22;32476;50.002;11.854;2023-07-02T01:03:57;14.30;99.90
46730;DHT22;32476;50.002;11.854;2023-07-02T01:06:27;14.30;99.90
46730;DHT22;32476;50.002;11.854;2023-07-02T01:09:03;14.30;99.90
46730;DHT22;32476;50.002;11.854;2023-07-02T01:16:37;14.30;99.90
46730;DHT22;32476;50.002;11.854;2023-07-02T01:19:21;14.30;99.90
46730;DHT22;32476;50.002;11.854;2023-07-02T01:21:50;14.30;99.90
46730;DHT22;32476;50.002;11.854;2023-07-02T01:24:16;14.30;99.90
46730;DHT22;32476;50.002;11.854;2023-07-02T01:26:42;14.30;99.90
46730;DHT22;32476;50.002;11.854;2023-07-02T01:31:43;14.30;99.90
46730;DHT22;32476;50.002;11.854;2023-07-02T01:34:12;14.30;99.90
46730;DHT22;32476;50.002;11.854;2023-07-02T01:36:38;14.20;99.90
46730;DHT22;32476;50.002;11.854;2023-07-02T01:39:05;14.20;99.90
46730;DHT22;32476;50.002;11.854;2023-07-02T01:42:08;14.20;99.90
46730;DHT22;32476;50.002;11.854;2023-07-02T01:44:36;14.20;99.90
46730;DHT22;32476;50.002;11.854;2023-07-02T01:47:04;14.20;99.90
46730;DHT22;32476;50.002;11.854;2023-07-02T01:49:30;14.20;99.90
46730;DHT22;32476;50.002;11.854;2023-07-02T01:51:56;14.20;99.90
46730;DHT22;32476;50.002;11.854;2023-07-02T01:54:25;14.20;99.90
46730;DHT22;32476;50.002;11.854;2023-07-02T01:56:56;14.10;99.90
46730;DHT22;32476;50.002;11.854;2023-07-02T01:59:22;14.10;99.90
46730;DHT22;32476;50.002;11.854;2023-07-02T02:01:49;14.10;99.90
46730;DHT22;32476;50.002;11.854;2023-07-02T02:04:15;14.10;99.90
46730;DHT22;32476;50.002;11.854;2023-07-02T02:06:42;14.10;99.90
46730;DHT22;32476;50.002;11.854;2023-07-02T02:09:10;14.10;99.90
46730;DHT22;32476;50.002;11.854;2023-07-02T02:11:40;14.10;99.90
46730;DHT22;32476;50.002;11.854;2023-07-02T02:14:09;14.00;99.90
46730;DHT22;32476;50.002;11.854;2023-07-02T02:16:35;14.10;99.90
46730;DHT22;32476;50.002;11.854;2023-07-02T02:19:01;14.00;99.90
46730;DHT22;32476;50.002;11.854;2023-07-02T02:21:30;14.00;99.90
46730;DHT22;32476;50.002;11.854;2023-07-02T02:23:56;14.00;99.90
46730;DHT22;32476;50.002;11.854;2023-07-02T02:26:22;14.00;99.90
46730;DHT22;32476;50.002;11.854;2023-07-02T02:28:50;13.90;99.90
46730;DHT22;32476;50.002;11.854;2023-07-02T02:31:16;13.90;99.90
46730;DHT22;32476;50.002;11.854;2023-07-02T02:33:42;13.90;99.90
46730;DHT22;32476;50.002;11.854;2023-07-02T02:36:09;14.00;99.90
46730;DHT22;32476;50.002;11.854;2023-07-02T02:38:36;13.90;99.90
46730;DHT22;32476;50.002;11.854;2023-07-02T02:41:03;13.90;99.90
46730;DHT22;32476;50.002;11.854;2023-07-02T02:43:31;13.90;99.90
46730;DHT22;32476;50.002;11.854;2023-07-02T02:45:57;13.90;99.90
46730;DHT22;32476;50.002;11.854;2023-07-02T02:48:22;13.90;99.90
46730;DHT22;32476;50.002;11.854;2023-07-02T02:50:50;13.90;99.90
46730;DHT22;32476;50.002;11.854;2023-07-02T02:53:16;13.90;99.90
46730;DHT22;32476;50.002;11.854;2023-07-02T02:55:42;13.90;99.90
46730;DHT22;32476;50.002;11.854;2023-07-02T02:58:10;13.90;99.90
46730;DHT22;32476;50.002;11.854;2023-07-02T03:00:36;13.80;99.90
46730;DHT22;32476;50.002;11.854;2023-07-02T03:03:02;13.80;99.90
46730;DHT22;32476;50.002;11.854;2023-07-02T03:05:30;13.80;99.90
46730;DHT22;32476;50.002;11.854;2023-07-02T03:07:56;13.80;99.90
46730;DHT22;32476;50.002;11.854;2023-07-02T03:10:22;13.80;99.90
46730;DHT22;32476;50.002;11.854;2023-07-02T03:12:49;13.80;99.90
46730;DHT22;32476;50.002;11.854;2023-07-02T03:15:15;13.80;99.90
46730;DHT22;32476;50.002;11.854;2023-07-02T03:17:43;13.70;99.90
46730;DHT22;32476;50.002;11.854;2023-07-02T03:20:10;13.80;99.90
46730;DHT22;32476;50.002;11.854;2023-07-02T03:22:37;13.70;99.90
46730;DHT22;32476;50.002;11.854;2023-07-02T03:25:03;13.70;99.90
46730;DHT22;32476;50.002;11.854;2023-07-02T03:27:31;13.70;99.90
46730;DHT22;32476;50.002;11.854;2023-07-02T03:29:57;13.70;99.90
46730;DHT22;32476;50.002;11.854;2023-07-02T03:32:24;13.70;99.90
46730;DHT22;32476;50.002;11.854;2023-07-02T03:34:51;13.70;99.90
46730;DHT22;32476;50.002;11.854;2023-07-02T03:37:18;13.60;99.90
46730;DHT22;32476;50.002;11.854;2023-07-02T03:39:44;13.60;99.90
46730;DHT22;32476;50.002;11.854;2023-07-02T03:42:11;13.70;99.90
46730;DHT22;32476;50.002;11.854;2023-07-02T03:44:37;13.60;99.90
46730;DHT22;32476;50.002;11.854;2023-07-02T03:47:03;13.60;99.90
46730;DHT22;32476;50.002;11.854;2023-07-02T03:49:30;13.60;99.90
46730;DHT22;32476;50.002;11.854;2023-07-02T03:51:56;13.60;99.90
46730;DHT22;32476;50.002;11.854;2023-07-02T03:54:22;13.60;99.90
46730;DHT22;32476;50.002;11.854;2023-07-02T03:56:50;13.60;99.90
46730;DHT22;32476;50.002;11.854;2023-07-02T03:59:15;13.50;99.90
46730;DHT22;32476;50.002;11.854;2023-07-02T04:01:41;13.50;99.90
46730;DHT22;32476;50.002;11.854;2023-07-02T04:04:10;13.50;99.90
46730;DHT22;32476;50.002;11.854;2023-07-02T04:06:37;13.60;99.90
46730;DHT22;32476;50.002;11.854;2023-07-02T04:09:03;13.50;99.90
46730;DHT22;32476;50.002;11.854;2023-07-02T04:11:31;13.50;99.90
46730;DHT22;32476;50.002;11.854;2023-07-02T04:13:57;13.50;99.90
46730;DHT22;32476;50.002;11.854;2023-07-02T04:16:23;13.50;99.90
46730;DHT22;32476;50.002;11.854;2023-07-02T04:18:50;13.50;99.90
46730;DHT22;32476;50.002;11.854;2023-07-02T04:21:16;13.50;99.90
46730;DHT22;32476;50.002;11.854;2023-07-02T04:23:42;13.50;99.90
46730;DHT22;32476;50.002;11.854;2023-07-02T04:26:09;13.50;99.90
46730;DHT22;32476;50.002;11.854;2023-07-02T04:28:35;13.50;99.90
46730;DHT22;32476;50.002;11.854;2023-07-02T04:31:01;13.50;99.90
46730;DHT22;32476;50.002;11.854;2023-07-02T04:33:29;13.50;99.90
46730;DHT22;32476;50.002;11.854;2023-07-02T04:36:03;13.50;99.90
46730;DHT22;32476;50.002;11.854;2023-07-02T04:38:31;13.60;99.90
46730;DHT22;32476;50.002;11.854;2023-07-02T04:40:59;13.60;99.90
46730;DHT22;32476;50.002;11.854;2023-07-02T04:43:32;13.50;99.90
46730;DHT22;32476;50.002;11.854;2023-07-02T04:45:58;13.60;99.90
46730;DHT22;32476;50.002;11.854;2023-07-02T04:48:24;13.60;99.90
46730;DHT22;32476;50.002;11.854;2023-07-02T04:50:52;13.50;99.90
46730;DHT22;32476;50.002;11.854;2023-07-02T04:53:18;13.50;99.90
46730;DHT22;32476;50.002;11.854;2023-07-02T04:55:44;13.50;99.90
46730;DHT22;32476;50.002;11.854;2023-07-02T04:58:11;13.50;99.90
46730;DHT22;32476;50.002;11.854;2023-07-02T05:00:37;13.40;99.90
46730;DHT22;32476;50.002;11.854;2023-07-02T05:03:04;13.40;99.90
46730;DHT22;32476;50.002;11.854;2023-07-02T05:05:31;13.50;99.90
46730;DHT22;32476;50.002;11.854;2023-07-02T05:07:57;13.50;99.90
46730;DHT22;32476;50.002;11.854;2023-07-02T05:10:23;13.60;99.90
46730;DHT22;32476;50.002;11.854;2023-07-02T05:12:51;13.60;99.90
46730;DHT22;32476;50.002;11.854;2023-07-02T05:15:17;13.70;99.90
46730;DHT22;32476;50.002;11.854;2023-07-02T05:17:42;13.60;99.90
46730;DHT22;32476;50.002;11.854;2023-07-02T05:20:10;13.60;99.90
46730;DHT22;32476;50.002;11.854;2023-07-02T05:22:36;13.70;99.90
46730;DHT22;32476;50.002;11.854;2023-07-02T05:25:02;13.70;99.90
46730;DHT22;32476;50.002;11.854;2023-07-02T05:27:30;13.70;99.90
46730;DHT22;32476;50.002;11.854;2023-07-02T05:29:56;13.70;99.90
46730;DHT22;32476;50.002;11.854;2023-07-02T05:32:22;13.70;99.90
46730;DHT22;32476;50.002;11.854;2023-07-02T05:34:50;13.80;99.90
46730;DHT22;32476;50.002;11.854;2023-07-02T05:37:16;13.90;99.90
46730;DHT22;32476;50.002;11.854;2023-07-02T05:39:41;13.90;99.90
46730;DHT22;32476;50.002;11.854;2023-07-02T05:42:09;13.90;99.90
46730;DHT22;32476;50.002;11.854;2023-07-02T05:44:35;13.90;99.90
46730;DHT22;32476;50.002;11.854;2023-07-02T05:47:01;14.00;99.90
46730;DHT22;32476;50.002;11.854;2023-07-02T05:49:28;14.10;99.90
46730;DHT22;32476;50.002;11.854;2023-07-02T05:51:54;14.10;99.90
46730;DHT22;32476;50.002;11.854;2023-07-02T05:54:20;13.90;99.90
46730;DHT22;32476;50.002;11.854;2023-07-02T05:56:47;14.00;99.90
46730;DHT22;32476;50.002;11.854;2023-07-02T05:59:13;14.00;99.90
46730;DHT22;32476;50.002;11.854;2023-07-02T06:01:43;14.00;99.90
46730;DHT22;32476;50.002;11.854;2023-07-02T06:04:11;14.10;99.90
46730;DHT22;32476;50.002;11.854;2023-07-02T06:06:37;14.00;99.90
46730;DHT22;32476;50.002;11.854;2023-07-02T06:09:02;14.10;99.90
46730;DHT22;32476;50.002;11.854;2023-07-02T06:11:31;14.10;99.90
46730;DHT22;32476;50.002;11.854;2023-07-02T06:13:56;14.00;99.90
46730;DHT22;32476;50.002;11.854;2023-07-02T06:16:22;14.10;99.90
46730;DHT22;32476;50.002;11.854;2023-07-02T06:18:50;13.90;99.90
46730;DHT22;32476;50.002;11.854;2023-07-02T06:21:16;14.00;99.90
46730;DHT22;32476;50.002;11.854;2023-07-02T06:23:45;14.00;99.90
46730;DHT22;32476;50.002;11.854;2023-07-02T06:26:12;13.80;99.90
46730;DHT22;32476;50.002;11.854;2023-07-02T06:28:39;13.90;99.90
46730;DHT22;32476;50.002;11.854;2023-07-02T06:31:05;14.00;99.90
46730;DHT22;32476;50.002;11.854;2023-07-02T06:33:32;13.90;99.90
46730;DHT22;32476;50.002;11.854;2023-07-02T06:35:58;13.90;99.90
46730;DHT22;32476;50.002;11.854;2023-07-02T06:38:24;13.90;99.90
46730;DHT22;32476;50.002;11.854;2023-07-02T06:40:52;13.80;99.90
46730;DHT22;32476;50.002;11.854;2023-07-02T06:43:18;13.70;99.90
46730;DHT22;32476;50.002;11.854;2023-07-02T06:45:44;13.70;99.90
46730;DHT22;32476;50.002;11.854;2023-07-02T06:48:12;13.70;99.90
46730;DHT22;32476;50.002;11.854;2023-07-02T06:50:46;13.60;99.90
46730;DHT22;32476;50.002;11.854;2023-07-02T06:53:13;13.50;99.90
46730;DHT22;32476;50.002;11.854;2023-07-02T06:55:39;13.80;99.90
46730;DHT22;32476;50.002;11.854;2023-07-02T06:58:05;13.90;99.90
46730;DHT22;32476;50.002;11.854;2023-07-02T07:00:34;14.10;99.90
46730;DHT22;32476;50.002;11.854;2023-07-02T07:03:02;14.10;99.90
46730;DHT22;32476;50.002;11.854;2023-07-02T07:05:32;13.90;99.90
46730;DHT22;32476;50.002;11.854;2023-07-02T07:08:00;13.90;99.90
46730;DHT22;32476;50.002;11.854;2023-07-02T07:10:26;14.00;99.90
46730;DHT22;32476;50.002;11.854;2023-07-02T07:12:53;14.20;99.90
46730;DHT22;32476;50.002;11.854;2023-07-02T07:15:20;14.40;99.90
46730;DHT22;32476;50.002;11.854;2023-07-02T07:17:46;14.50;99.90
46730;DHT22;32476;50.002;11.854;2023-07-02T07:20:12;14.30;99.90
46730;DHT22;32476;50.002;11.854;2023-07-02T07:22:40;14.30;99.90
46730;DHT22;32476;50.002;11.854;2023-07-02T07:25:07;14.30;99.90
46730;DHT22;32476;50.002;11.854;2023-07-02T07:27:33;14.20;99.90
46730;DHT22;32476;50.002;11.854;2023-07-02T07:30:01;14.40;99.90
46730;DHT22;32476;50.002;11.854;2023-07-02T07:32:27;14.50;99.90
46730;DHT22;32476;50.002;11.854;2023-07-02T07:34:53;14.30;99.90
46730;DHT22;32476;50.002;11.854;2023-07-02T07:37:20;14.20;99.90
46730;DHT22;32476;50.002;11.854;2023-07-02T07:39:46;14.20;99.90
46730;DHT22;32476;50.002;11.854;2023-07-02T07:42:14;14.30;99.90
46730;DHT22;32476;50.002;11.854;2023-07-02T07:44:47;14.50;99.90
46730;DHT22;32476;50.002;11.854;2023-07-02T07:47:13;14.40;99.90
46730;DHT22;32476;50.002;11.854;2023-07-02T07:49:42;14.80;99.90
46730;DHT22;32476;50.002;11.854;2023-07-02T07:52:09;15.00;99.90
46730;DHT22;32476;50.002;11.854;2023-07-02T07:54:35;15.10;99.90
46730;DHT22;32476;50.002;11.854;2023-07-02T07:57:03;15.50;99.90
46730;DHT22;32476;50.002;11.854;2023-07-02T07:59:31;15.20;99.90
46730;DHT22;32476;50.002;11.854;2023-07-02T08:01:57;15.20;99.90
46730;DHT22;32476;50.002;11.854;2023-07-02T08:04:23;15.50;99.90
46730;DHT22;32476;50.002;11.854;2023-07-02T08:06:50;15.70;99.90
46730;DHT22;32476;50.002;11.854;2023-07-02T08:09:17;15.60;99.90
46730;DHT22;32476;50.002;11.854;2023-07-02T08:11:43;15.90;99.90
46730;DHT22;32476;50.002;11.854;2023-07-02T08:14:11;15.90;99.90
46730;DHT22;32476;50.002;11.854;2023-07-02T08:16:38;16.40;99.90
46730;DHT22;32476;50.002;11.854;2023-07-02T08:19:04;16.70;99.90
46730;DHT22;32476;50.002;11.854;2023-07-02T08:21:32;16.60;99.90
46730;DHT22;32476;50.002;11.854;2023-07-02T08:23:59;16.30;99.90
46730;DHT22;32476;50.002;11.854;2023-07-02T08:26:30;16.10;99.90
46730;DHT22;32476;50.002;11.854;2023-07-02T08:28:58;15.90;99.90
46730;DHT22;32476;50.002;11.854;2023-07-02T08:31:24;16.10;99.90
46730;DHT22;32476;50.002;11.854;2023-07-02T08:33:50;15.80;99.90
46730;DHT22;32476;50.002;11.854;2023-07-02T08:36:17;16.20;99.90
46730;DHT22;32476;50.002;11.854;2023-07-02T08:38:43;16.50;99.90
46730;DHT22;32476;50.002;11.854;2023-07-02T08:41:09;16.70;99.90
46730;DHT22;32476;50.002;11.854;2023-07-02T08:43:37;16.70;99.90
46730;DHT22;32476;50.002;11.854;2023-07-02T08:46:04;16.70;99.90
46730;DHT22;32476;50.002;11.854;2023-07-02T08:48:30;16.30;99.90
46730;DHT22;32476;50.002;11.854;2023-07-02T08:50:57;16.10;99.90
46730;DHT22;32476;50.002;11.854;2023-07-02T08:53:23;16.10;99.90
46730;DHT22;32476;50.002;11.854;2023-07-02T08:55:55;16.30;99.90
46730;DHT22;32476;50.002;11.854;2023-07-02T08:58:26;16.40;99.90
46730;DHT22;32476;50.002;11.854;2023-07-02T09:01:12;16.30;99.90
46730;DHT22;32476;50.002;11.854;2023-07-02T09:03:41;16.30;99.90
46730;DHT22;32476;50.002;11.854;2023-07-02T09:06:08;16.40;99.90
46730;DHT22;32476;50.002;11.854;2023-07-02T09:08:36;16.60;99.90
46730;DHT22;32476;50.002;11.854;2023-07-02T09:11:11;16.60;99.90
46730;DHT22;32476;50.002;11.854;2023-07-02T09:13:51;16.70;99.90
46730;DHT22;32476;50.002;11.854;2023-07-02T09:16:25;16.90;99.90
46730;DHT22;32476;50.002;11.854;2023-07-02T09:19:07;16.80;99.90
46730;DHT22;32476;50.002;11.854;2023-07-02T09:21:43;16.70;99.90
46730;DHT22;32476;50.002;11.854;2023-07-02T09:24:20;17.10;99.90
46730;DHT22;32476;50.002;11.854;2023-07-02T09:26:51;16.90;99.90
46730;DHT22;32476;50.002;11.854;2023-07-02T09:31:51;16.00;99.90
46730;DHT22;32476;50.002;11.854;2023-07-02T09:34:17;16.50;99.90
46730;DHT22;32476;50.002;11.854;2023-07-02T09:36:43;17.30;99.90
46730;DHT22;32476;50.002;11.854;2023-07-02T09:39:18;17.70;99.90
46730;DHT22;32476;50.002;11.854;2023-07-02T09:41:48;18.40;99.90
46730;DHT22;32476;50.002;11.854;2023-07-02T09:44:17;17.70;99.90
46730;DHT22;32476;50.002;11.854;2023-07-02T09:46:55;17.80;99.90
46730;DHT22;32476;50.002;11.854;2023-07-02T09:49:34;18.00;99.90
46730;DHT22;32476;50.002;11.854;2023-07-02T09:52:06;18.10;99.90
46730;DHT22;32476;50.002;11.854;2023-07-02T09:54:36;18.10;99.90
46730;DHT22;32476;50.002;11.854;2023-07-02T09:57:02;18.20;99.90
46730;DHT22;32476;50.002;11.854;2023-07-02T09:59:29;18.30;99.90
46730;DHT22;32476;50.002;11.854;2023-07-02T10:01:57;18.40;99.90
46730;DHT22;32476;50.002;11.854;2023-07-02T10:04:23;17.40;99.90
46730;DHT22;32476;50.002;11.854;2023-07-02T10:06:50;17.30;99.90
46730;DHT22;32476;50.002;11.854;2023-07-02T10:09:20;17.20;99.90
46730;DHT22;32476;50.002;11.854;2023-07-02T10:11:48;16.80;99.90
46730;DHT22;32476;50.002;11.854;2023-07-02T10:14:14;17.20;99.90
46730;DHT22;32476;50.002;11.854;2023-07-02T10:16:52;18.00;99.90
46730;DHT22;32476;50.002;11.854;2023-07-02T10:19:20;18.10;99.90
46730;DHT22;32476;50.002;11.854;2023-07-02T10:22:02;18.70;99.90
46730;DHT22;32476;50.002;11.854;2023-07-02T10:24:28;18.30;99.90
46730;DHT22;32476;50.002;11.854;2023-07-02T10:27:00;18.30;99.90
46730;DHT22;32476;50.002;11.854;2023-07-02T10:29:29;18.60;99.90
46730;DHT22;32476;50.002;11.854;2023-07-02T10:31:57;19.20;99.90
46730;DHT22;32476;50.002;11.854;2023-07-02T10:34:31;18.90;99.90
46730;DHT22;32476;50.002;11.854;2023-07-02T10:37:03;18.60;99.90
46730;DHT22;32476;50.002;11.854;2023-07-02T10:39:30;18.40;99.90
46730;DHT22;32476;50.002;11.854;2023-07-02T10:44:34;17.90;99.90
46730;DHT22;32476;50.002;11.854;2023-07-02T10:47:00;18.10;99.90
46730;DHT22;32476;50.002;11.854;2023-07-02T10:49:32;18.30;99.90
46730;DHT22;32476;50.002;11.854;2023-07-02T10:52:01;18.70;99.90
46730;DHT22;32476;50.002;11.854;2023-07-02T10:54:42;19.20;99.90
46730;DHT22;32476;50.002;11.854;2023-07-02T10:57:13;19.10;99.90
46730;DHT22;32476;50.002;11.854;2023-07-02T10:59:46;19.60;99.90
46730;DHT22;32476;50.002;11.854;2023-07-02T11:02:15;19.70;99.90
46730;DHT22;32476;50.002;11.854;2023-07-02T11:04:41;19.70;99.90
46730;DHT22;32476;50.002;11.854;2023-07-02T11:07:07;19.50;99.90
46730;DHT22;32476;50.002;11.854;2023-07-02T11:09:34;19.30;99.90
46730;DHT22;32476;50.002;11.854;2023-07-02T11:12:01;19.20;99.90
46730;DHT22;32476;50.002;11.854;2023-07-02T11:14:34;19.30;99.90
46730;DHT22;32476;50.002;11.854;2023-07-02T11:17:03;19.50;99.90
46730;DHT22;32476;50.002;11.854;2023-07-02T11:19:31;20.10;99.90
46730;DHT22;32476;50.002;11.854;2023-07-02T11:22:02;20.50;99.90
46730;DHT22;32476;50.002;11.854;2023-07-02T11:24:33;20.40;99.70
46730;DHT22;32476;50.002;11.854;2023-07-02T11:27:03;20.20;99.90
46730;DHT22;32476;50.002;11.854;2023-07-02T11:29:36;19.40;99.90
46730;DHT22;32476;50.002;11.854;2023-07-02T11:32:11;18.90;99.90
46730;DHT22;32476;50.002;11.854;2023-07-02T11:34:38;18.60;99.90
46730;DHT22;32476;50.002;11.854;2023-07-02T11:37:06;18.80;99.90
46730;DHT22;32476;50.002;11.854;2023-07-02T11:39:32;19.10;99.90
46730;DHT22;32476;50.002;11.854;2023-07-02T11:41:58;19.40;99.90
46730;DHT22;32476;50.002;11.854;2023-07-02T11:44:26;19.60;99.90
46730;DHT22;32476;50.002;11.854;2023-07-02T11:46:52;20.10;99.90
46730;DHT22;32476;50.002;11.854;2023-07-02T11:49:18;19.60;99.90
46730;DHT22;32476;50.002;11.854;2023-07-02T11:51:45;18.90;99.90
46730;DHT22;32476;50.002;11.854;2023-07-02T11:54:14;18.50;99.90
46730;DHT22;32476;50.002;11.854;2023-07-02T11:56:42;18.10;99.90
46730;DHT22;32476;50.002;11.854;2023-07-02T11:59:10;18.00;99.90
46730;DHT22;32476;50.002;11.854;2023-07-02T12:01:36;18.00;99.90
46730;DHT22;32476;50.002;11.854;2023-07-02T12:04:02;17.80;99.90
46730;DHT22;32476;50.002;11.854;2023-07-02T12:06:30;17.50;99.90
46730;DHT22;32476;50.002;11.854;2023-07-02T12:08:56;17.80;99.90
46730;DHT22;32476;50.002;11.854;2023-07-02T12:11:22;18.00;99.90
46730;DHT22;32476;50.002;11.854;2023-07-02T12:13:50;18.10;99.90
46730;DHT22;32476;50.002;11.854;2023-07-02T12:16:16;17.90;99.90
46730;DHT22;32476;50.002;11.854;2023-07-02T12:18:41;18.80;99.90
46730;DHT22;32476;50.002;11.854;2023-07-02T12:21:09;19.30;99.90
46730;DHT22;32476;50.002;11.854;2023-07-02T12:23:35;19.10;99.90
46730;DHT22;32476;50.002;11.854;2023-07-02T12:26:01;19.40;99.90
46730;DHT22;32476;50.002;11.854;2023-07-02T12:28:28;19.40;99.90
46730;DHT22;32476;50.002;11.854;2023-07-02T12:30:54;19.20;99.90
46730;DHT22;32476;50.002;11.854;2023-07-02T12:33:20;19.30;99.90
46730;DHT22;32476;50.002;11.854;2023-07-02T12:35:48;19.50;99.90
46730;DHT22;32476;50.002;11.854;2023-07-02T12:38:14;19.80;99.90
46730;DHT22;32476;50.002;11.854;2023-07-02T12:40:39;19.70;99.90
46730;DHT22;32476;50.002;11.854;2023-07-02T12:43:07;19.20;99.90
46730;DHT22;32476;50.002;11.854;2023-07-02T12:45:33;19.10;99.90
46730;DHT22;32476;50.002;11.854;2023-07-02T12:47:59;18.90;99.90
46730;DHT22;32476;50.002;11.854;2023-07-02T12:50:26;18.40;99.90
46730;DHT22;32476;50.002;11.854;2023-07-02T12:52:52;18.80;99.90
46730;DHT22;32476;50.002;11.854;2023-07-02T12:55:18;19.40;99.90
46730;DHT22;32476;50.002;11.854;2023-07-02T12:57:46;19.90;99.90
46730;DHT22;32476;50.002;11.854;2023-07-02T13:00:12;19.70;99.90
46730;DHT22;32476;50.002;11.854;2023-07-02T13:02:38;19.60;99.90
46730;DHT22;32476;50.002;11.854;2023-07-02T13:05:06;19.10;99.90
46730;DHT22;32476;50.002;11.854;2023-07-02T13:07:32;18.80;99.90
46730;DHT22;32476;50.002;11.854;2023-07-02T13:09:58;18.60;99.90
46730;DHT22;32476;50.002;11.854;2023-07-02T13:12:25;18.60;99.90
46730;DHT22;32476;50.002;11.854;2023-07-02T13:14:51;18.30;99.90
46730;DHT22;32476;50.002;11.854;2023-07-02T13:17:17;18.30;99.90
46730;DHT22;32476;50.002;11.854;2023-07-02T13:19:44;18.70;99.90
46730;DHT22;32476;50.002;11.854;2023-07-02T13:22:11;19.50;99.90
46730;DHT22;32476;50.002;11.854;2023-07-02T13:24:37;19.40;99.80
46730;DHT22;32476;50.002;11.854;2023-07-02T13:27:11;19.00;99.40
46730;DHT22;32476;50.002;11.854;2023-07-02T13:29:38;18.80;99.90
46730;DHT22;32476;50.002;11.854;2023-07-02T13:32:06;18.40;99.90
46730;DHT22;32476;50.002;11.854;2023-07-02T13:34:33;18.50;99.90
46730;DHT22;32476;50.002;11.854;2023-07-02T13:36:58;19.10;99.90
46730;DHT22;32476;50.002;11.854;2023-07-02T13:39:26;19.60;99.90
46730;DHT22;32476;50.002;11.854;2023-07-02T13:41:52;20.20;99.70
46730;DHT22;32476;50.002;11.854;2023-07-02T13:44:18;19.70;99.00
46730;DHT22;32476;50.002;11.854;2023-07-02T13:46:47;19.30;99.30
46730;DHT22;32476;50.002;11.854;2023-07-02T13:49:13;19.30;99.30
46730;DHT22;32476;50.002;11.854;2023-07-02T13:51:39;19.10;98.90
46730;DHT22;32476;50.002;11.854;2023-07-02T13:54:06;19.70;98.70
46730;DHT22;32476;50.002;11.854;2023-07-02T13:56:32;20.00;96.10
46730;DHT22;32476;50.002;11.854;2023-07-02T13:59:00;20.40;97.50
46730;DHT22;32476;50.002;11.854;2023-07-02T14:01:28;20.20;96.30
46730;DHT22;32476;50.002;11.854;2023-07-02T14:03:54;19.90;95.90
46730;DHT22;32476;50.002;11.854;2023-07-02T14:06:20;19.60;95.70
46730;DHT22;32476;50.002;11.854;2023-07-02T14:08:48;19.50;97.60
46730;DHT22;32476;50.002;11.854;2023-07-02T14:11:14;19.40;96.40
46730;DHT22;32476;50.002;11.854;2023-07-02T14:13:40;19.60;96.20
46730;DHT22;32476;50.002;11.854;2023-07-02T14:16:07;19.20;96.50
46730;DHT22;32476;50.002;11.854;2023-07-02T14:18:33;19.10;97.30
46730;DHT22;32476;50.002;11.854;2023-07-02T14:20:59;19.50;96.10
46730;DHT22;32476;50.002;11.854;2023-07-02T14:23:27;19.50;97.30
46730;DHT22;32476;50.002;11.854;2023-07-02T14:25:53;19.30;97.80
46730;DHT22;32476;50.002;11.854;2023-07-02T14:28:18;19.40;97.90
46730;DHT22;32476;50.002;11.854;2023-07-02T14:30:46;19.10;97.30
46730;DHT22;32476;50.002;11.854;2023-07-02T14:33:14;18.90;98.00
46730;DHT22;32476;50.002;11.854;2023-07-02T14:35:40;18.60;97.80
46730;DHT22;32476;50.002;11.854;2023-07-02T14:38:07;18.70;98.90
46730;DHT22;32476;50.002;11.854;2023-07-02T14:40:33;18.80;99.20
46730;DHT22;32476;50.002;11.854;2023-07-02T14:42:59;18.90;98.40
46730;DHT22;32476;50.002;11.854;2023-07-02T14:45:27;18.80;99.10
46730;DHT22;32476;50.002;11.854;2023-07-02T14:47:53;18.70;98.40
46730;DHT22;32476;50.002;11.854;2023-07-02T14:50:19;18.80;98.80
46730;DHT22;32476;50.002;11.854;2023-07-02T14:52:46;18.70;98.30
46730;DHT22;32476;50.002;11.854;2023-07-02T14:55:12;18.70;99.00
46730;DHT22;32476;50.002;11.854;2023-07-02T14:57:38;18.70;97.30
46730;DHT22;32476;50.002;11.854;2023-07-02T15:00:06;18.60;97.80
46730;DHT22;32476;50.002;11.854;2023-07-02T15:02:33;18.70;98.70
46730;DHT22;32476;50.002;11.854;2023-07-02T15:04:59;18.90;99.10
46730;DHT22;32476;50.002;11.854;2023-07-02T15:07:27;19.10;98.30
46730;DHT22;32476;50.002;11.854;2023-07-02T15:09:53;19.10;97.80
46730;DHT22;32476;50.002;11.854;2023-07-02T15:12:19;19.00;97.80
46730;DHT22;32476;50.002;11.854;2023-07-02T15:14:46;18.80;98.10
46730;DHT22;32476;50.002;11.854;2023-07-02T15:17:12;19.00;97.80
46730;DHT22;32476;50.002;11.854;2023-07-02T15:19:38;18.80;97.10
46730;DHT22;32476;50.002;11.854;2023-07-02T15:22:05;19.10;98.20
46730;DHT22;32476;50.002;11.854;2023-07-02T15:24:31;19.10;97.90
46730;DHT22;32476;50.002;11.854;2023-07-02T15:26:57;19.10;97.30
46730;DHT22;32476;50.002;11.854;2023-07-02T15:29:25;19.10;97.10
46730;DHT22;32476;50.002;11.854;2023-07-02T15:31:51;19.00;97.20